Tiempo atmosférico en la estación meteorológica de Caldes De Montbui, Barcelona (168 m.)



Fecha
DESCASC
Temp. máxima en grados centígrados (hora)
DESCASC
Temp. mínima en grados centígrados (hora)
DESCASC
Temp. media en grados centígrados
DESCASC
Racha de viento máxima en m/sg (hora)
DESCASC
Velocidad máxima media en intervalos de 10 minutos(hora)
DESCASC
Precipitaciones diarias en mm
DESCASC
Precipitaciones de 00:00 a 06:00 en mm
DESCASC
Precipitaciones de 06:00 a 12:00 en mm
DESCASC
Precipitaciones de 12:00 a 18:00 en mm
DESCASC
Precipitaciones de 18:00 a 24:00 en mm
DESCASC
17-02-2019 16.6 (15:30) -1.2 (06:10) 7.7 6.39 (16:40) 4.44 (16:40) 0 0 0 0 0
16-02-2019 19.2 (14:50) -0.9 (08:00) 9.2 5.56 (16:00) 4.17 (15:50) 0 0 0 0 0
15-02-2019 18.4 (15:20) -1.8 (08:00) 8.3 5.83 (16:20) 3.89 (16:00) 0 0 0 0 0
14-02-2019 16.5 (14:40) -0.7 (-00:0) 7.9 7.5 (17:00) 5 (16:50) 0 0 0 0 0
13-02-2019 15.8 (15:20) -0.8 (-00:0) 7.5 5.28 (15:30) 3.89 (17:30) 0 0 0 0 0
12-02-2019 16.8 (16:10) 0.1 (00:00) 8.4 6.67 (16:40) 4.17 (13:50) 0 0 0 0 0
11-02-2019 15.9 (16:30) 6.6 (00:00) 11.2 5.28 (17:20) 3.61 (17:20) 0 0 0 0 0
10-02-2019 18.2 (16:00) 1.6 (00:00) 9.9 13.33 (13:00) 8.33 (11:20) 0 0 0 0 0
09-02-2019 18.2 (15:10) 3 (00:00) 10.6 5.28 (16:10) 3.89 (16:10) 0 0 0 0 0
08-02-2019 17.2 (15:10) 3 (00:00) 10.1 7.22 (15:40) 4.17 (15:20) 0 0 0 0 0
07-02-2019 16 (15:50) 2.2 (00:00) 9.1 3.61 (02:10) 2.5 (01:20) 0 0 0 0 0
06-02-2019 18.1 (15:10) 1.2 (00:00) 9.7 4.44 (00:10) 3.33 (17:00) 0 0 0 0 0
05-02-2019 17.2 (17:00) 1.5 (00:00) 9.4 5 (23:59) 3.89 (23:59) 0 0 0 0 0
04-02-2019 13.5 (15:30) -4.5 (-00:0) 4.5 5.83 (16:40) 4.44 (16:50) 0 0 0 0 0
03-02-2019 12.4 (14:40) -1.7 (-00:0) 5.3 12.22 (14:40) 7.5 (16:50) 0 0 0 0 0
02-02-2019 12.2 (15:30) 2.2 (00:00) 7.2 9.44 (00:10) 5 (00:10) 0.2 0 0 0.2 0
01-02-2019 16.2 (14:40) 5.6 (00:00) 10.9 14.17 (23:10) 9.44 (23:10) 0.8 0 0.2 0.2 0.4
31-01-2019 16.5 (15:20) 2.9 (00:00) 9.7 11.94 (16:00) 7.5 (14:50) 0 0 0 0 0
30-01-2019 12.3 (15:40) 2.9 (00:00) 7.6 12.22 (00:20) 6.39 (11:40) 0 0 0 0 0
29-01-2019 8.5 (16:20) -0.4 (00:00) 4 11.11 (23:59) 5 (23:59) 0 0 0 0 0
28-01-2019 12.2 (15:20) 0.3 (00:00) 6.2 20.56 (13:10) 14.17 (14:00) 0 0 0 0 0
27-01-2019 15.2 (16:00) 1.6 (00:00) 8.4 12.78 (19:20) 8.06 (19:20) 0 0 0 0 0
26-01-2019 17.3 (15:30) 0.9 (00:00) 9.1 6.67 (12:50) 4.72 (13:30) 0 0 0 0 0
25-01-2019 15.9 (15:50) -2.8 (-00:0) 6.5 5.83 (16:00) 4.17 (16:00) 0 0 0 0 0
24-01-2019 11.9 (14:10) -0.5 (-00:0) 5.7 20.83 (09:30) 14.44 (09:20) 0 0 0 0 0
23-01-2019 9.9 (15:40) 0.6 (00:00) 5.2 14.17 (15:50) 10 (16:50) 0 0 0 0 0
22-01-2019 10.3 (13:50) -2.6 (-00:0) 3.9 7.78 (19:50) 4.72 (20:00) 0 0 0 0 0
21-01-2019 12 (15:40) -0.7 (-00:0) 5.7 5.56 (16:50) 3.89 (17:20) 0 0 0 0 0
20-01-2019 9 (15:30) 1.8 (00:00) 5.4 3.89 (11:10) 2.5 (08:10) 8 2.6 5.4 0 0
19-01-2019 12.1 (14:40) -0.2 (00:00) 6 5.28 (15:40) 3.89 (15:30) 0 0 0 0 0

Gráficas

Temp. máximas Temp. mínimas Temp. medias Precipitaciones Rachas de viento máximas Velocidades máximas media en intervalos de 10 minutos

Datos horarios

Fecha y hora oficial Temperatura (ºC) Velocidad del viento (km/h) Dirección del viento Racha (km/h) Dirección de racha Precipitación (mm) Presión (hPa) Tendencia (hPa) Humedad (%)
2019-02-17 23:00:00 6.3 9 Oeste 14 Oeste 0 -- -- 91
2019-02-17 22:00:00 6.2 10 Noroeste 14 Noroeste 0 -- -- 90
2019-02-17 21:00:00 6.8 8 Noroeste 13 Noroeste 0 -- -- 89
2019-02-17 20:00:00 6.7 7 Noroeste 9 Noroeste 0 -- -- 87
2019-02-17 19:00:00 8.3 2 Oeste 9 Sudeste 0 -- -- 77
2019-02-17 18:00:00 11.7 8 Sudeste 18 Sudeste 0 -- -- 76
2019-02-17 17:00:00 13.9 14 Sudeste 23 Sudeste 0 -- -- 69
2019-02-17 16:00:00 16.4 8 Sudeste 14 Sudeste 0 -- -- 54
2019-02-17 15:00:00 16.2 7 Sudeste 14 Sudeste 0 -- -- 49
2019-02-17 14:00:00 15.3 9 Sudeste 19 Sudeste 0 -- -- 61
2019-02-17 13:00:00 14.5 8 Sudeste 19 Este 0 -- -- 62
2019-02-17 12:00:00 12.9 4 Sur 8 Sur 0 -- -- 65
2019-02-17 11:00:00 9.6 3 Sudeste 10 Sudeste 0 -- -- 64
2019-02-17 10:00:00 6.5 6 Sudeste 9 Sudeste 0 -- -- 69
2019-02-17 09:00:00 3.3 3 Noroeste 13 Noroeste 0 -- -- 68
2019-02-17 08:00:00 -0.6 4 Noroeste 8 Noroeste 0 -- -- 74
2019-02-17 07:00:00 -0.8 4 Noroeste 8 Noroeste 0 -- -- 74
2019-02-17 06:00:00 -1.1 2 Noroeste 8 Noroeste 0 -- -- 79
2019-02-17 05:00:00 0.6 4 Noroeste 9 Noroeste 0 -- -- 71
2019-02-17 04:00:00 1.4 7 Noroeste 11 Noroeste 0 -- -- 69
2019-02-17 03:00:00 2.2 6 Noroeste 12 Noroeste 0 -- -- 70
2019-02-17 02:00:00 2.8 9 Noroeste 14 Noroeste 0 -- -- 71
2019-02-17 01:00:00 3.7 8 Noroeste 12 Noroeste 0 -- -- 69
2019-02-17 00:00:00 5.1 8 Noroeste 18 Noroeste 0 -- -- 71
2019-02-16 23:00:00 5 10 Noroeste 15 Noroeste 0 -- -- 77
2019-02-16 22:00:00 6.4 12 Noroeste 17 Noroeste 0 -- -- 76
2019-02-16 21:00:00 7 5 Noroeste 13 Noroeste 0 -- -- 77
2019-02-16 20:00:00 7.6 9 Noroeste 11 Noroeste 0 -- -- 80
2019-02-16 19:00:00 8.9 5 Noroeste 10 Sudeste 0 -- -- 77
2019-02-16 18:00:00 13.9 5 Sudeste 14 Sudeste 0 -- -- 61
2019-02-16 17:00:00 15.6 9 Sudeste 18 Sur 0 -- -- 53
2019-02-16 16:00:00 17 15 Sudeste 20 Sudeste 0 -- -- 45
2019-02-16 15:00:00 19.1 12 Sudeste 17 Sudeste 0 -- -- 28
2019-02-16 14:00:00 18.2 8 Este 14 Sudeste 0 -- -- 28
2019-02-16 13:00:00 16.1 4 Sudeste 10 Este 0 -- -- 39
2019-02-16 12:00:00 14.1 5 Este 9 Sudeste 0 -- -- 46
2019-02-16 11:00:00 10.5 3 Sudeste 6 Sudeste 0 -- -- 58
2019-02-16 10:00:00 7.1 4 Sudeste 6 Este 0 -- -- 68
2019-02-16 09:00:00 2.4 0 Calma 4 Noroeste 0 -- -- 88
2019-02-16 08:00:00 -0.9 4 Noroeste 5 Noroeste 0 -- -- 84
2019-02-16 07:00:00 0.3 3 Norte 7 Noroeste 0 -- -- 81
2019-02-16 06:00:00 0.1 2 Norte 7 Noroeste 0 -- -- 88
2019-02-16 05:00:00 0.7 4 Noroeste 8 Noroeste 0 -- -- 79
2019-02-16 04:00:00 0.5 3 Noroeste 8 Norte 0 -- -- 81
2019-02-16 03:00:00 2.2 5 Noroeste 9 Noroeste 0 -- -- 75
2019-02-16 02:00:00 2.6 5 Noroeste 12 Noroeste 0 -- -- 72
2019-02-16 01:00:00 2.8 6 Noroeste 12 Norte 0 -- -- 75
2019-02-16 00:00:00 4.4 9 Noroeste 14 Oeste 0 -- -- 72
2019-02-15 23:00:00 5 6 Noroeste 15 Noroeste 0 -- -- 75
2019-02-15 22:00:00 5.2 8 Noroeste 12 Noroeste 0 -- -- 79
2019-02-15 21:00:00 6.1 7 Noroeste 11 Noroeste 0 -- -- 79
2019-02-15 20:00:00 7.3 6 Noroeste 12 Noroeste 0 -- -- 75
2019-02-15 19:00:00 10.7 6 Sur 10 Sur 0 -- -- 71
2019-02-15 18:00:00 14 5 Sudeste 17 Sudeste 0 -- -- 58
2019-02-15 17:00:00 15.7 12 Sudeste 21 Sudeste 0 -- -- 53
2019-02-15 16:00:00 17.9 14 Sudeste 18 Sudeste 0 -- -- 35
2019-02-15 15:00:00 18.3 10 Sudeste 20 Sudeste 0 -- -- 19
2019-02-15 14:00:00 17.3 9 Sudeste 17 Sudeste 0 -- -- 29
2019-02-15 13:00:00 15.7 9 Este 14 Sudeste 0 -- -- 34
2019-02-15 12:00:00 12.8 5 Este 9 Este 0 -- -- 45
2019-02-15 11:00:00 9.6 4 Sudeste 9 Este 0 -- -- 57
2019-02-15 10:00:00 6.6 3 Sudeste 5 Este 0 -- -- 67
2019-02-15 09:00:00 2.1 0 Calma 5 Noroeste 0 -- -- 90
2019-02-15 08:00:00 -1.8 3 Noroeste 8 Noroeste 0 -- -- 81
2019-02-15 07:00:00 -0.7 5 Norte 12 Noroeste 0 -- -- 87
2019-02-15 06:00:00 -0.6 5 Noroeste 9 Noroeste 0 -- -- 77
2019-02-15 05:00:00 -0.1 7 Noroeste 13 Noroeste 0 -- -- 76
2019-02-15 04:00:00 0.1 5 Noroeste 12 Noroeste 0 -- -- 77
2019-02-15 03:00:00 1.3 5 Noroeste 13 Noroeste 0 -- -- 75
2019-02-15 02:00:00 1.6 8 Noroeste 10 Noroeste 0 -- -- 78
2019-02-15 01:00:00 2.8 7 Noroeste 15 Noroeste 0 -- -- 76
2019-02-15 00:00:00 3.4 12 Noroeste 16 Noroeste 0 -- -- 80
2019-02-14 23:00:00 3.7 9 Noroeste 13 Noroeste 0 -- -- 83
2019-02-14 22:00:00 4.5 8 Noroeste 12 Noroeste 0 -- -- 83
2019-02-14 21:00:00 5.3 6 Noroeste 13 Noroeste 0 -- -- 81
2019-02-14 20:00:00 6.3 7 Noroeste 11 Noroeste 0 -- -- 78
2019-02-14 19:00:00 8.2 5 Noroeste 14 Sudeste 0 -- -- 68
2019-02-14 18:00:00 12.4 9 Sudeste 25 Este 0 -- -- 55
2019-02-14 17:00:00 14.1 17 Sudeste 27 Sudeste 0 -- -- 50
2019-02-14 16:00:00 16.1 12 Sudeste 23 Sudeste 0 -- -- 46
2019-02-14 15:00:00 16.5 13 Sudeste 22 Sudeste 0 -- -- 32
2019-02-14 14:00:00 16 9 Sur 20 Sudeste 0 -- -- 28
2019-02-14 13:00:00 13.5 8 Sudeste 13 Este 0 -- -- 50
2019-02-14 12:00:00 11.3 3 Este 9 Sudeste 0 -- -- 54
2019-02-14 11:00:00 8.6 5 Sudeste 7 Sudeste 0 -- -- 61
2019-02-14 10:00:00 5.8 3 Sudeste 6 Este 0 -- -- 74
2019-02-14 09:00:00 1.9 0 Calma 6 Noroeste 0 -- -- 89
2019-02-14 08:00:00 0.1 5 Norte 11 Noroeste 0 -- -- 77
2019-02-14 07:00:00 0.2 8 Noroeste 10 Noroeste 0 -- -- 78
2019-02-14 06:00:00 -0.2 5 Noroeste 9 Noroeste 0 -- -- 80
2019-02-14 05:00:00 1 5 Noroeste 15 Noroeste 0 -- -- 77
2019-02-14 04:00:00 0.9 9 Noroeste 15 Noroeste 0 -- -- 80
2019-02-14 03:00:00 1.9 11 Noroeste 15 Noroeste 0 -- -- 76
2019-02-14 02:00:00 2.5 11 Noroeste 16 Noroeste 0 -- -- 78
2019-02-14 01:00:00 2.8 9 Noroeste 15 Noroeste 0 -- -- 80
2019-02-14 00:00:00 3.2 9 Noroeste 18 Noroeste 0 -- -- 83
2019-02-13 23:00:00 4.2 13 Noroeste 17 Noroeste 0 -- -- 85
2019-02-13 22:00:00 5 9 Noroeste 16 Noroeste 0 -- -- 86
2019-02-13 21:00:00 5.9 9 Noroeste 14 Noroeste 0 -- -- 86
2019-02-13 20:00:00 6.4 9 Noroeste 11 Noroeste 0 -- -- 83
2019-02-13 19:00:00 7.8 5 Noroeste 14 Sudeste 0 -- -- 71
2019-02-13 18:00:00 12.1 10 Sudeste 18 Sudeste 0 -- -- 62
2019-02-13 17:00:00 14.3 10 Sudeste 18 Sudeste 0 -- -- 59
2019-02-13 16:00:00 15.4 12 Sudeste 19 Este 0 -- -- 53
2019-02-13 15:00:00 15.6 8 Sudeste 16 Sudeste 0 -- -- 50
2019-02-13 14:00:00 14.9 6 Este 14 Este 0 -- -- 51
2019-02-13 13:00:00 13.8 8 Sudeste 16 Sudoeste 0 -- -- 58
2019-02-13 12:00:00 12.9 8 Sudeste 13 Sudeste 0 -- -- 61
2019-02-13 11:00:00 10.8 4 Sudeste 9 Sudeste 0 -- -- 62
2019-02-13 10:00:00 7.7 4 Este 6 Este 0 -- -- 71
2019-02-13 09:00:00 3.2 4 Noroeste 10 Noroeste 0 -- -- 88
2019-02-13 08:00:00 -0.7 3 Noroeste 9 Norte 0 -- -- 91
2019-02-13 07:00:00 -0.5 2 Noroeste 8 Noroeste 0 -- -- 91
2019-02-13 06:00:00 -0.6 4 Noroeste 6 Oeste 0 -- -- 89
2019-02-13 05:00:00 -0.4 4 Noroeste 6 Oeste 0 -- -- 88
2019-02-13 04:00:00 -0.2 6 Noroeste 8 Noroeste 0 -- -- 85
2019-02-13 03:00:00 0.5 3 Norte 6 Noroeste 0 -- -- 83
2019-02-13 02:00:00 1.1 0 Calma 7 Norte 0 -- -- 79
2019-02-13 01:00:00 1.7 3 Oeste 6 Norte 0 -- -- 76
2019-02-13 00:00:00 3.1 3 Norte 10 Noroeste 0 -- -- 74
2019-02-12 23:00:00 2.5 3 Noroeste 6 Noroeste 0 -- -- 73
2019-02-12 22:00:00 3.8 2 Oeste 7 Noroeste 0 -- -- 69
2019-02-12 21:00:00 6.6 6 Noroeste 14 Noroeste 0 -- -- 61
2019-02-12 20:00:00 7.8 10 Noroeste 13 Oeste 0 -- -- 58
2019-02-12 19:00:00 9 9 Noroeste 12 Noroeste 0 -- -- 56
2019-02-12 18:00:00 14.3 6 Oeste 22 Sudoeste 0 -- -- 37
2019-02-12 17:00:00 16.4 12 Sudoeste 24 Sudoeste 0 -- -- 36
2019-02-12 16:00:00 16.7 12 Sur 22 Sur 0 -- -- 35
2019-02-12 15:00:00 16.3 9 Sudeste 21 Sur 0 -- -- 32
2019-02-12 14:00:00 15.8 14 Sudeste 23 Sudeste 0 -- -- 28
2019-02-12 13:00:00 14.4 10 Este 18 Este 0 -- -- 42
2019-02-12 12:00:00 12.1 8 Sudeste 14 Sudeste 0 -- -- 62
2019-02-12 11:00:00 9.7 5 Sudeste 10 Este 0 -- -- 72
2019-02-12 10:00:00 7 5 Sudeste 8 Este 0 -- -- 86
2019-02-12 09:00:00 3.1 0 Calma 8 Oeste 0 -- -- 100
2019-02-12 08:00:00 0.9 7 Noroeste 9 Oeste 0 -- -- 99
2019-02-12 07:00:00 0.7 3 Noroeste 9 Sudeste 0 -- -- 97
2019-02-12 06:00:00 2.5 4 Noroeste 13 Oeste 0 -- -- 97
2019-02-12 05:00:00 2.3 0 Calma 9 Noroeste 0 -- -- 96
2019-02-12 04:00:00 3.1 3 Sudeste 10 Este 0 -- -- 95
2019-02-12 03:00:00 4.8 5 Sudeste 15 Noroeste 0 -- -- 90
2019-02-12 02:00:00 5.6 6 Noroeste 14 Noroeste 0 -- -- 90
2019-02-12 01:00:00 6.5 11 Noroeste 13 Noroeste 0 -- -- 89
2019-02-12 00:00:00 6.6 11 Noroeste 14 Noroeste 0 -- -- 87
2019-02-11 23:00:00 6.9 9 Noroeste 15 Noroeste 0 -- -- 87
2019-02-11 22:00:00 6.9 8 Noroeste 12 Noroeste 0 -- -- 86
2019-02-11 21:00:00 7.4 8 Noroeste 10 Noroeste 0 -- -- 83
2019-02-11 20:00:00 8.2 6 Noroeste 10 Noroeste 0 -- -- 79
2019-02-11 19:00:00 10.5 3 Este 15 Sudeste 0 -- -- 72
2019-02-11 18:00:00 13 9 Sudeste 19 Sudeste 0 -- -- 62
2019-02-11 17:00:00 15.3 10 Este 16 Noroeste 0 -- -- 49
2019-02-11 16:00:00 15.3 10 Noroeste 19 Noroeste 0 -- -- 41
2019-02-11 15:00:00 15.8 8 Sudeste 18 Sudeste 0 -- -- 42
2019-02-11 14:00:00 14.9 7 Sudeste 17 Sudeste 0 -- -- 48
2019-02-11 13:00:00 13.8 6 Sudeste 16 Sudeste 0 -- -- 58
2019-02-11 12:00:00 12.9 5 Sudoeste 11 Sur 0 -- -- 64
2019-02-11 11:00:00 10.6 2 Este 10 Sudeste 0 -- -- 75
2019-02-11 10:00:00 9.9 5 Sudeste 8 Noroeste 0 -- -- 83
2019-02-11 09:00:00 8.8 5 Noroeste 6 Noroeste 0 -- -- 86
2019-02-11 08:00:00 7.6 0 Calma 6 Sudeste 0 -- -- 85
2019-02-11 07:00:00 9.5 3 Este 9 Oeste 0 -- -- 80
2019-02-11 06:00:00 9.6 4 Oeste 10 Noroeste 0 -- -- 78
2019-02-11 05:00:00 9.9 3 Noroeste 10 Noroeste 0 -- -- 81
2019-02-11 04:00:00 9.3 4 Norte 7 Noroeste 0 -- -- 86
2019-02-11 03:00:00 8.5 4 Norte 9 Norte 0 -- -- 94
2019-02-11 02:00:00 8.7 0 Calma 5 Este 0 -- -- 90
2019-02-11 01:00:00 9.6 3 Noroeste 15 Noroeste 0 -- -- 90
2019-02-11 00:00:00 9.3 8 Noroeste 13 Noroeste 0 -- -- 87
2019-02-10 23:00:00 10.5 5 Noroeste 19 Nordeste 0 -- -- 83
2019-02-10 22:00:00 11.6 9 Norte 25 Noroeste 0 -- -- 78
2019-02-10 21:00:00 14.6 7 Sudoeste 20 Sudoeste 0 -- -- 57
2019-02-10 20:00:00 14.9 9 Sudeste 30 Sudoeste 0 -- -- 56
2019-02-10 19:00:00 14.8 8 Oeste 32 Sudoeste 0 -- -- 55
2019-02-10 18:00:00 16.4 21 Sudoeste 33 Sudoeste 0 -- -- 50
2019-02-10 17:00:00 17.9 12 Sudoeste 33 Oeste 0 -- -- 45
2019-02-10 16:00:00 18.2 12 Oeste 25 Sudoeste 0 -- -- 43
2019-02-10 15:00:00 16.6 13 Oeste 30 Oeste 0 -- -- 48
2019-02-10 14:00:00 15.1 16 Sudoeste 40 Sudoeste 0 -- -- 51
2019-02-10 13:00:00 16 30 Sudoeste 48 Sudoeste 0 -- -- 47
2019-02-10 12:00:00 17 21 Oeste 45 Oeste 0 -- -- 44
2019-02-10 11:00:00 15.1 22 Sudoeste 38 Sudoeste 0 -- -- 52
2019-02-10 10:00:00 14.2 26 Oeste 39 Sudoeste 0 -- -- 53
2019-02-10 09:00:00 3.3 0 Calma 6 Sudeste 0 -- -- 99
2019-02-10 08:00:00 1.8 2 Noroeste 6 Noroeste 0 -- -- 96
2019-02-10 07:00:00 1.7 2 Norte 9 Oeste 0 -- -- 94
2019-02-10 06:00:00 2.3 3 Noroeste 6 Noroeste 0 -- -- 94
2019-02-10 05:00:00 3.6 3 Noroeste 8 Noroeste 0 -- -- 92
2019-02-10 04:00:00 4.1 3 Noroeste 10 Noroeste 0 -- -- 91
2019-02-10 03:00:00 4 5 Noroeste 8 Oeste 0 -- -- 94
2019-02-10 02:00:00 4.3 4 Noroeste 6 Noroeste 0 -- -- 90
2019-02-10 01:00:00 5.2 5 Noroeste 8 Noroeste 0 -- -- 89
2019-02-10 00:00:00 6.1 6 Noroeste 11 Noroeste 0 -- -- 86
2019-02-09 23:00:00 6.1 6 Noroeste 13 Noroeste 0 -- -- 88
2019-02-09 22:00:00 6.7 9 Noroeste 13 Noroeste 0 -- -- 83
2019-02-09 21:00:00 7.5 8 Noroeste 14 Noroeste 0 -- -- 81
2019-02-09 20:00:00 7.9 8 Noroeste 10 Oeste 0 -- -- 83
2019-02-09 19:00:00 9.8 2 Sur 7 Sudeste 0 -- -- 79
2019-02-09 18:00:00 13.9 8 Sudeste 13 Sudeste 0 -- -- 70
2019-02-09 17:00:00 15.7 10 Sudeste 19 Sudeste 0 -- -- 60
2019-02-09 16:00:00 17.8 12 Sudeste 18 Sudeste 0 -- -- 51
2019-02-09 15:00:00 18.1 6 Sudeste 17 Sur 0 -- -- 44
2019-02-09 14:00:00 17.4 6 Sudeste 14 Este 0 -- -- 47
2019-02-09 13:00:00 15.8 8 Sudeste 13 Sudeste 0 -- -- 64
2019-02-09 12:00:00 13.8 5 Sudeste 10 Sudeste 0 -- -- 71
2019-02-09 11:00:00 10.4 6 Sudeste 13 Sudeste 0 -- -- 81
2019-02-09 10:00:00 8.2 4 Sudeste 10 Noroeste 0 -- -- 90
2019-02-09 09:00:00 6.7 8 Noroeste 12 Noroeste 0 -- -- 89
2019-02-09 08:00:00 5.2 7 Noroeste 12 Noroeste 0 -- -- 91
2019-02-09 07:00:00 5 6 Noroeste 11 Noroeste 0 -- -- 91
2019-02-09 06:00:00 4.2 5 Noroeste 14 Noroeste 0 -- -- 94
2019-02-09 05:00:00 3.3 4 Noroeste 5 Oeste 0 -- -- 96
2019-02-09 04:00:00 3.4 3 Noroeste 6 Noroeste 0 -- -- 93
2019-02-09 03:00:00 3.8 0 Calma 7 Noroeste 0 -- -- 92
2019-02-09 02:00:00 3.5 5 Noroeste 9 Noroeste 0 -- -- 92
2019-02-09 01:00:00 3.5 5 Noroeste 9 Noroeste 0 -- -- 92
2019-02-09 00:00:00 3.6 4 Noroeste 9 Noroeste 0 -- -- 90
2019-02-08 23:00:00 4.8 6 Noroeste 9 Noroeste 0 -- -- 88
2019-02-08 22:00:00 5.6 6 Noroeste 10 Sudoeste 0 -- -- 87
2019-02-08 21:00:00 6.7 8 Noroeste 14 Sudoeste 0 -- -- 86
2019-02-08 20:00:00 11.1 11 Sudoeste 19 Sudoeste 0 -- -- 84
2019-02-08 19:00:00 12.3 10 Sur 21 Sudoeste 0 -- -- 77
2019-02-08 18:00:00 14.4 10 Sur 23 Sudoeste 0 -- -- 64
2019-02-08 17:00:00 16.6 13 Sur 22 Sur 0 -- -- 53
2019-02-08 16:00:00 17.1 13 Sur 26 Sur 0 -- -- 52
2019-02-08 15:00:00 17 13 Sur 22 Sur 0 -- -- 51
2019-02-08 14:00:00 16.4 12 Sur 22 Sur 0 -- -- 51
2019-02-08 13:00:00 15.3 4 Sudeste 11 Sudoeste 0 -- -- 59
2019-02-08 12:00:00 13 4 Sur 10 Sudeste 0 -- -- 69
2019-02-08 11:00:00 9.1 7 Sudeste 10 Sudeste 0 -- -- 96
2019-02-08 10:00:00 6.1 3 Este 9 Sudeste 0 -- -- 100
2019-02-08 09:00:00 3.3 4 Noroeste 7 Noroeste 0 -- -- 100
2019-02-08 08:00:00 3.4 6 Noroeste 8 Noroeste 0 -- -- 100
2019-02-08 07:00:00 4.9 0 Calma 4 Oeste 0 -- -- 100
2019-02-08 06:00:00 4.2 0 Calma 5 Sur 0 -- -- 100
2019-02-08 05:00:00 4.9 4 Noroeste 9 Oeste 0 -- -- 99
2019-02-08 04:00:00 6.4 3 Este 8 Oeste 0 -- -- 97
2019-02-08 03:00:00 6 4 Noroeste 11 Noroeste 0 -- -- 93
2019-02-08 02:00:00 6.8 8 Noroeste 12 Noroeste 0 -- -- 93
2019-02-08 01:00:00 6.7 7 Noroeste 9 Noroeste 0 -- -- 94
2019-02-08 00:00:00 6.9 3 Noroeste 6 Oeste 0 -- -- 92
2019-02-07 23:00:00 8.1 0 Calma 6 Sudoeste 0 -- -- 87
2019-02-07 22:00:00 10.8 4 Sur 8 Sur 0 -- -- 87
2019-02-07 21:00:00 10.6 3 Oeste 8 Noroeste 0 -- -- 84
2019-02-07 20:00:00 10.3 2 Norte 6 Oeste 0 -- -- 83
2019-02-07 19:00:00 11.8 3 Sur 12 Sur 0 -- -- 80
2019-02-07 18:00:00 13.6 8 Sudeste 10 Sudeste 0 -- -- 75
2019-02-07 17:00:00 14.7 4 Sur 10 Sudeste 0 -- -- 70
2019-02-07 16:00:00 16 5 Este 12 Sudeste 0 -- -- 59
2019-02-07 15:00:00 15.3 5 Sudeste 10 Sudeste 0 -- -- 62
2019-02-07 14:00:00 15.1 6 Sudeste 12 Sudeste 0 -- -- 65
2019-02-07 13:00:00 13.8 7 Sudeste 12 Sudeste 0 -- -- 71
2019-02-07 12:00:00 11.7 4 Sudeste 7 Sudeste 0 -- -- 78
2019-02-07 11:00:00 9.1 5 Este 9 Este 0 -- -- 89
2019-02-07 10:00:00 5.9 3 Este 4 Este 0 -- -- 98
2019-02-07 09:00:00 4 0 Calma 9 Oeste 0 -- -- 97
2019-02-07 08:00:00 3.6 6 Noroeste 10 Noroeste 0 -- -- 99
2019-02-07 07:00:00 2.6 0 Calma 7 Noroeste 0 -- -- 97
2019-02-07 06:00:00 3.5 6 Noroeste 8 Noroeste 0 -- -- 97
2019-02-07 05:00:00 3.7 2 Noroeste 8 Noroeste 0 -- -- 95
2019-02-07 04:00:00 4.6 6 Noroeste 9 Noroeste 0 -- -- 94
2019-02-07 03:00:00 4.6 5 Noroeste 13 Noroeste 0 -- -- 94
2019-02-07 02:00:00 5.5 7 Noroeste 12 Noroeste 0 -- -- 93
2019-02-07 01:00:00 5.6 8 Noroeste 12 Noroeste 0 -- -- 94
2019-02-07 00:00:00 6.2 9 Noroeste 12 Noroeste 0 -- -- 93
2019-02-06 23:00:00 7 10 Noroeste 14 Noroeste 0 -- -- 90
2019-02-06 22:00:00 7.4 9 Noroeste 13 Noroeste 0 -- -- 90
2019-02-06 21:00:00 7.9 10 Noroeste 13 Noroeste 0 -- -- 88
2019-02-06 20:00:00 8.4 4 Noroeste 10 Noroeste 0 -- -- 86
2019-02-06 19:00:00 10.6 7 Sudoeste 10 Sur 0 -- -- 79
2019-02-06 18:00:00 13.5 9 Sur 15 Sudeste 0 -- -- 71
2019-02-06 17:00:00 16.6 12 Sudeste 15 Sudeste 0 -- -- 59
2019-02-06 16:00:00 17.9 8 Sudeste 13 Sudeste 0 -- -- 49
2019-02-06 15:00:00 18 5 Sudeste 12 Este 0 -- -- 52
2019-02-06 14:00:00 17.3 7 Sudeste 13 Este 0 -- -- 55
2019-02-06 13:00:00 15.9 6 Sudeste 12 Sudeste 0 -- -- 58
2019-02-06 12:00:00 13.6 4 Sudeste 9 Este 0 -- -- 63
2019-02-06 11:00:00 11.2 5 Este 8 Este 0 -- -- 71
2019-02-06 10:00:00 8.2 3 Sudeste 6 Sudeste 0 -- -- 81
2019-02-06 09:00:00 3.8 3 Noroeste 4 Noroeste 0 -- -- 98
2019-02-06 08:00:00 1.7 4 Noroeste 6 Noroeste 0 -- -- 97
2019-02-06 07:00:00 2.2 0 Calma 7 Noroeste 0 -- -- 96
2019-02-06 06:00:00 2.1 4 Noroeste 5 Noroeste 0 -- -- 96
2019-02-06 05:00:00 2.7 3 Noroeste 8 Noroeste 0 -- -- 94
2019-02-06 04:00:00 3.5 4 Noroeste 8 Noroeste 0 -- -- 92
2019-02-06 03:00:00 3 5 Noroeste 6 Noroeste 0 -- -- 91
2019-02-06 02:00:00 4.8 3 Noroeste 15 Noroeste 0 -- -- 88
2019-02-06 01:00:00 5.7 8 Noroeste 16 Noroeste 0 -- -- 88
2019-02-06 00:00:00 6.3 14 Noroeste 18 Noroeste 0 -- -- 84
2019-02-05 23:00:00 6.5 9 Noroeste 14 Noroeste 0 -- -- 80
2019-02-05 22:00:00 6.8 9 Noroeste 15 Noroeste 0 -- -- 78
2019-02-05 21:00:00 7.4 13 Noroeste 15 Noroeste 0 -- -- 77
2019-02-05 20:00:00 7.9 9 Noroeste 14 Noroeste 0 -- -- 78
2019-02-05 19:00:00 8.7 6 Noroeste 9 Noroeste 0 -- -- 71
2019-02-05 18:00:00 13.7 4 Sudeste 10 Sur 0 -- -- 57
2019-02-05 17:00:00 17.2 3 Sur 7 Sudeste 0 -- -- 42
2019-02-05 16:00:00 15.4 3 Este 10 Este 0 -- -- 46
2019-02-05 15:00:00 16.5 4 Sudeste 10 Este 0 -- -- 42
2019-02-05 14:00:00 15 2 Sudeste 11 Este 0 -- -- 45
2019-02-05 13:00:00 14.8 6 Sudeste 13 Sudeste 0 -- -- 44
2019-02-05 12:00:00 12.4 6 Sudeste 13 Este 0 -- -- 51
2019-02-05 11:00:00 9.4 4 Sudeste 10 Sudeste 0 -- -- 61
2019-02-05 10:00:00 6.8 7 Sudeste 9 Este 0 -- -- 66
2019-02-05 09:00:00 3.3 5 Noroeste 8 Noroeste 0 -- -- 83
2019-02-05 08:00:00 2.3 5 Noroeste 9 Noroeste 0 -- -- 82
2019-02-05 07:00:00 2.9 2 Noroeste 6 Noroeste 0 -- -- 77
2019-02-05 06:00:00 3.2 0 Calma 4 Noroeste 0 -- -- 77
2019-02-05 05:00:00 3.7 0 Calma 9 Noroeste 0 -- -- 75
2019-02-05 04:00:00 4.4 4 Noroeste 6 Noroeste 0 -- -- 73
2019-02-05 03:00:00 4.9 3 Noroeste 11 Noroeste 0 -- -- 71
2019-02-05 02:00:00 5.2 8 Noroeste 10 Noroeste 0 -- -- 69
2019-02-05 01:00:00 5.3 5 Noroeste 8 Noroeste 0 -- -- 67
2019-02-05 00:00:00 5.8 5 Oeste 8 Oeste 0 -- -- 65
2019-02-04 23:00:00 5.9 6 Noroeste 8 Noroeste 0 -- -- 65
2019-02-04 22:00:00 6 5 Noroeste 11 Noroeste 0 -- -- 63
2019-02-04 21:00:00 5.9 10 Noroeste 13 Noroeste 0 -- -- 60
2019-02-04 20:00:00 5.9 9 Noroeste 12 Noroeste 0 -- -- 60
2019-02-04 19:00:00 5.6 8 Noroeste 11 Noroeste 0 -- -- 57
2019-02-04 18:00:00 9.2 3 Sur 20 Sudeste 0 -- -- 43
2019-02-04 17:00:00 10.9 14 Sudeste 21 Sudeste 0 -- -- 37
2019-02-04 16:00:00 13.3 11 Sudeste 17 Sudeste 0 -- -- 31
2019-02-04 15:00:00 13.4 10 Sudeste 19 Sudeste 0 -- -- 30
2019-02-04 14:00:00 13.2 10 Este 16 Este 0 -- -- 28
2019-02-04 13:00:00 12 4 Sur 14 Sudeste 0 -- -- 32
2019-02-04 12:00:00 10.1 3 Este 10 Sudeste 0 -- -- 32
2019-02-04 11:00:00 6.5 8 Sudeste 15 Sudeste 0 -- -- 38
2019-02-04 10:00:00 3.9 0 Calma 5 Este 0 -- -- 45
2019-02-04 09:00:00 -1.4 4 Oeste 10 Noroeste 0 -- -- 68
2019-02-04 08:00:00 -3.7 5 Noroeste 11 Noroeste 0 -- -- 67
2019-02-04 07:00:00 -4.2 3 Sudoeste 9 Noroeste 0 -- -- 66
2019-02-04 06:00:00 -4 8 Noroeste 10 Noroeste 0 -- -- 67
2019-02-04 05:00:00 -2.9 3 Noroeste 10 Oeste 0 -- -- 62
2019-02-04 04:00:00 -2 3 Sudeste 12 Sudeste 0 -- -- 58
2019-02-04 03:00:00 -1.1 5 Noroeste 13 Noroeste 0 -- -- 55
2019-02-04 02:00:00 -0.9 3 Oeste 8 Sudeste 0 -- -- 52
2019-02-04 01:00:00 1 3 Noroeste 13 Sudeste 0 -- -- 43
2019-02-04 00:00:00 3.5 5 Noroeste 13 Noroeste 0 -- -- 34
2019-02-03 23:00:00 5.7 13 Sur 20 Sur 0 -- -- 31
2019-02-03 22:00:00 5.3 9 Sur 16 Sur 0 -- -- 34
2019-02-03 21:00:00 7.6 9 Nordeste 34 Noroeste 0 -- -- 29
2019-02-03 20:00:00 8 17 Noroeste 29 Noroeste 0 -- -- 27
2019-02-03 19:00:00 8.3 21 Noroeste 36 Noroeste 0 -- -- 28
2019-02-03 18:00:00 9.3 21 Noroeste 42 Noroeste 0 -- -- 26
2019-02-03 17:00:00 10.7 26 Noroeste 39 Noroeste 0 -- -- 24
2019-02-03 16:00:00 11.8 23 Noroeste 36 Noroeste 0 -- -- 23
2019-02-03 15:00:00 12.1 21 Noroeste 44 Noroeste 0 -- -- 21
2019-02-03 14:00:00 12.1 16 Oeste 27 Oeste 0 -- -- 21
2019-02-03 13:00:00 11 14 Noroeste 31 Noroeste 0 -- -- 22
2019-02-03 12:00:00 10.2 10 Noroeste 25 Noroeste 0 -- -- 24
2019-02-03 11:00:00 9.4 14 Noroeste 23 Noroeste 0 -- -- 25
2019-02-03 10:00:00 7.4 9 Noroeste 31 Noroeste 0 -- -- 28
2019-02-03 09:00:00 3.1 17 Noroeste 23 Noroeste 0 -- -- 44
2019-02-03 08:00:00 -1.5 8 Oeste 12 Oeste 0 -- -- 65
2019-02-03 07:00:00 -0.8 5 Noroeste 12 Noroeste 0 -- -- 62
2019-02-03 06:00:00 -0.6 3 Noroeste 10 Oeste 0 -- -- 60
2019-02-03 05:00:00 -0.4 4 Oeste 12 Noroeste 0 -- -- 59
2019-02-03 04:00:00 2.5 7 Sudoeste 13 Oeste 0 -- -- 46
2019-02-03 03:00:00 2 4 Este 22 Noroeste 0 -- -- 51
2019-02-03 02:00:00 5.2 18 Noroeste 26 Oeste 0 -- -- 35
2019-02-03 01:00:00 4.8 4 Noroeste 35 Oeste 0 -- -- 39
2019-02-03 00:00:00 6.3 17 Oeste 30 Oeste 0 -- -- 34
2019-02-02 23:00:00 6.1 8 Oeste 24 Oeste 0 -- -- 42
2019-02-02 22:00:00 6.5 10 Noroeste 25 Oeste 0 -- -- 45
2019-02-02 21:00:00 7.1 11 Noroeste 27 Noroeste 0 -- -- 44
2019-02-02 20:00:00 4.8 4 Noroeste 12 Oeste 0 -- -- 66
2019-02-02 19:00:00 7 5 Sudoeste 12 Sudoeste 0 -- -- 77
2019-02-02 18:00:00 9.7 5 Este 16 Este 0 -- -- 68
2019-02-02 17:00:00 10.8 6 Nordeste 13 Sudoeste 0.2 -- -- 66
2019-02-02 16:00:00 11.4 5 Sudeste 23 Sudeste 0 -- -- 59
2019-02-02 15:00:00 10.8 5 Sur 21 Sudoeste 0 -- -- 60
2019-02-02 14:00:00 10.1 11 Oeste 25 Sudoeste 0 -- -- 62
2019-02-02 13:00:00 8.6 11 Oeste 27 Oeste 0 -- -- 66
2019-02-02 12:00:00 7.3 9 Oeste 24 Noroeste 0 -- -- 72
2019-02-02 11:00:00 7.3 11 Oeste 27 Noroeste 0 -- -- 72
2019-02-02 10:00:00 6.6 7 Oeste 17 Oeste 0 -- -- 73
2019-02-02 09:00:00 6.4 4 Oeste 22 Noroeste 0 -- -- 75
2019-02-02 08:00:00 5.2 8 Noroeste 15 Nordeste 0 -- -- 79
2019-02-02 07:00:00 2.8 4 Norte 13 Sudoeste 0 -- -- 87
2019-02-02 06:00:00 2.8 6 Oeste 14 Nordeste 0 -- -- 88
2019-02-02 05:00:00 3 3 Nordeste 8 Sur 0 -- -- 88
2019-02-02 04:00:00 3.2 3 Norte 10 Noroeste 0 -- -- 87
2019-02-02 03:00:00 5.9 4 Este 25 Sudoeste 0 -- -- 78
2019-02-02 02:00:00 6.9 12 Sudoeste 26 Oeste 0 -- -- 75
2019-02-02 01:00:00 7.3 10 Sudeste 34 Noroeste 0 -- -- 74
2019-02-02 00:00:00 6.6 28 Noroeste 51 Oeste 0.4 -- -- 79
2019-02-01 23:00:00 9.9 28 Oeste 44 Oeste 0 -- -- 64
2019-02-01 22:00:00 6 11 Noroeste 15 Noroeste 0 -- -- 76
2019-02-01 21:00:00 6.2 5 Nordeste 14 Oeste 0 -- -- 74
2019-02-01 20:00:00 7.9 9 Sudoeste 13 Oeste 0 -- -- 65
2019-02-01 19:00:00 9.7 7 Oeste 12 Sur 0 -- -- 62
2019-02-01 18:00:00 12.9 6 Sur 23 Oeste 0 -- -- 54
2019-02-01 17:00:00 14.6 16 Sudoeste 32 Sudoeste 0 -- -- 46
2019-02-01 16:00:00 13.9 14 Sudoeste 42 Oeste 0 -- -- 51
2019-02-01 15:00:00 15.7 21 Sudoeste 42 Oeste 0 -- -- 46
2019-02-01 14:00:00 15.8 17 Oeste 29 Oeste 0.2 -- -- 52
2019-02-01 13:00:00 15.8 17 Oeste 28 Oeste 0 -- -- 51
2019-02-01 12:00:00 13.9 8 Sudeste 27 Sudoeste 0 -- -- 65
2019-02-01 11:00:00 10.9 17 Oeste 43 Sudoeste 0.2 -- -- 75
2019-02-01 10:00:00 11.7 26 Oeste 43 Oeste 0 -- -- 75
2019-02-01 09:00:00 12.8 10 Sudoeste 21 Sudoeste 0 -- -- 86
2019-02-01 08:00:00 12.8 7 Sur 31 Sur 0 -- -- 84
2019-02-01 07:00:00 12.3 10 Sur 30 Sudoeste 0 -- -- 85
2019-02-01 06:00:00 12 9 Sur 20 Sur 0 -- -- 82
2019-02-01 05:00:00 8.6 5 Noroeste 8 Noroeste 0 -- -- 89
2019-02-01 04:00:00 8 0 Calma 9 Sur 0 -- -- 88
2019-02-01 03:00:00 8.4 2 Noroeste 5 Norte 0 -- -- 87
2019-02-01 02:00:00 8.4 6 Noroeste 12 Noroeste 0 -- -- 88
2019-02-01 01:00:00 8.2 7 Noroeste 10 Noroeste 0 -- -- 88
2019-02-01 00:00:00 7.9 3 Noroeste 8 Este 0 -- -- 86
2019-01-31 23:00:00 8.5 3 Noroeste 9 Noroeste 0 -- -- 87
2019-01-31 22:00:00 8.5 4 Sudeste 12 Noroeste 0 -- -- 85
2019-01-31 21:00:00 7.8 4 Noroeste 8 Noroeste 0 -- -- 84
2019-01-31 20:00:00 9.7 0 Calma 6 Norte 0 -- -- 76
2019-01-31 19:00:00 11.9 3 Sur 13 Sudoeste 0 -- -- 71
2019-01-31 18:00:00 13.9 12 Sudoeste 30 Sudoeste 0 -- -- 63
2019-01-31 17:00:00 15.1 19 Sudoeste 35 Sudoeste 0 -- -- 59
2019-01-31 16:00:00 16.2 25 Sudoeste 43 Sudoeste 0 -- -- 56
2019-01-31 15:00:00 16.1 24 Sudoeste 39 Sudoeste 0 -- -- 57
2019-01-31 14:00:00 15.5 23 Sudoeste 39 Sudoeste 0 -- -- 59
2019-01-31 13:00:00 13.9 23 Sudoeste 37 Sudoeste 0 -- -- 64
2019-01-31 12:00:00 12.2 18 Sudoeste 30 Sudoeste 0 -- -- 67
2019-01-31 11:00:00 11.8 16 Sudoeste 31 Sudoeste 0 -- -- 64
2019-01-31 10:00:00 10 15 Oeste 28 Sudoeste 0 -- -- 68
2019-01-31 09:00:00 6 5 Noroeste 10 Este 0 -- -- 82
2019-01-31 08:00:00 7.1 5 Este 15 Este 0 -- -- 74
2019-01-31 07:00:00 6.5 6 Este 13 Sudeste 0 -- -- 76
2019-01-31 06:00:00 3.7 3 Este 10 Sudoeste 0 -- -- 81
2019-01-31 05:00:00 3.2 5 Noroeste 8 Oeste 0 -- -- 80
2019-01-31 04:00:00 4.1 0 Calma 5 Oeste 0 -- -- 76
2019-01-31 03:00:00 4.1 2 Norte 6 Oeste 0 -- -- 77
2019-01-31 02:00:00 4.4 3 Noroeste 10 Noroeste 0 -- -- 75
2019-01-31 01:00:00 4.2 5 Noroeste 8 Noroeste 0 -- -- 75
2019-01-31 00:00:00 3.7 2 Noroeste 9 Noroeste 0 -- -- 74
2019-01-30 23:00:00 3.1 3 Noroeste 9 Sur 0 -- -- 73
2019-01-30 22:00:00 5.3 3 Norte 24 Sudoeste 0 -- -- 66
2019-01-30 21:00:00 6 4 Oeste 19 Oeste 0 -- -- 63
2019-01-30 20:00:00 5.2 3 Oeste 11 Oeste 0 -- -- 69
2019-01-30 19:00:00 8.2 11 Oeste 18 Oeste 0 -- -- 60
2019-01-30 18:00:00 9.7 10 Sudoeste 30 Sudoeste 0 -- -- 55
2019-01-30 17:00:00 10.9 19 Oeste 37 Oeste 0 -- -- 50
2019-01-30 16:00:00 12 20 Oeste 35 Noroeste 0 -- -- 45
2019-01-30 15:00:00 11.9 18 Oeste 32 Oeste 0 -- -- 45
2019-01-30 14:00:00 12.1 15 Oeste 33 Noroeste 0 -- -- 44
2019-01-30 13:00:00 11.2 18 Oeste 27 Oeste 0 -- -- 47
2019-01-30 12:00:00 9.9 19 Noroeste 36 Oeste 0 -- -- 53
2019-01-30 11:00:00 8.2 11 Oeste 26 Sur 0 -- -- 61
2019-01-30 10:00:00 6.3 16 Sur 30 Oeste 0 -- -- 70
2019-01-30 09:00:00 4.7 14 Oeste 23 Oeste 0 -- -- 76
2019-01-30 08:00:00 3.8 5 Sudeste 18 Sudoeste 0 -- -- 78
2019-01-30 07:00:00 4.4 5 Sudeste 23 Oeste 0 -- -- 76
2019-01-30 06:00:00 3.4 4 Nordeste 14 Este 0 -- -- 77
2019-01-30 05:00:00 4.9 8 Sudeste 21 Oeste 0 -- -- 76
2019-01-30 04:00:00 5.5 7 Noroeste 34 Oeste 0 -- -- 74
2019-01-30 03:00:00 6.3 14 Noroeste 37 Oeste 0 -- -- 74
2019-01-30 02:00:00 5.5 6 Este 30 Oeste 0 -- -- 78
2019-01-30 01:00:00 7 14 Noroeste 44 Oeste 0 -- -- 74
2019-01-30 00:00:00 7.5 18 Oeste 40 Oeste 0 -- -- 73
2019-01-29 23:00:00 6.5 10 Noroeste 22 Oeste 0 -- -- 78
2019-01-29 22:00:00 4.5 3 Oeste 7 Noroeste 0 -- -- 84
2019-01-29 21:00:00 7 2 Oeste 16 Sur 0 -- -- 78
2019-01-29 20:00:00 7.5 9 Sur 17 Sudoeste 0 -- -- 75
2019-01-29 19:00:00 7.8 9 Sudoeste 26 Sur 0 -- -- 74
2019-01-29 18:00:00 7.5 12 Sudoeste 18 Sudoeste 0 -- -- 76
2019-01-29 17:00:00 8.1 8 Sudoeste 16 Sur 0 -- -- 74
2019-01-29 16:00:00 8.2 3 Sur 11 Sudoeste 0 -- -- 77
2019-01-29 15:00:00 7.6 0 Calma 6 Este 0 -- -- 81
2019-01-29 14:00:00 7.3 0 Calma 6 Este 0 -- -- 78
2019-01-29 13:00:00 6.6 4 Este 6 Este 0 -- -- 79
2019-01-29 12:00:00 5.7 3 Este 5 Este 0 -- -- 80
2019-01-29 11:00:00 4.6 4 Este 9 Sudoeste 0 -- -- 84
2019-01-29 10:00:00 3.2 4 Oeste 8 Sudeste 0 -- -- 90
2019-01-29 09:00:00 0.9 6 Sudeste 14 Sudeste 0 -- -- 94
2019-01-29 08:00:00 0.5 3 Noroeste 15 Noroeste 0 -- -- 90
2019-01-29 07:00:00 0.8 7 Noroeste 20 Noroeste 0 -- -- 90
2019-01-29 06:00:00 0 9 Noroeste 12 Noroeste 0 -- -- 92
2019-01-29 05:00:00 -0.1 3 Noroeste 14 Oeste 0 -- -- 91
2019-01-29 04:00:00 -0.1 3 Oeste 9 Sudeste 0 -- -- 92
2019-01-29 03:00:00 0.3 4 Noroeste 10 Noroeste 0 -- -- 92
2019-01-29 02:00:00 0.8 6 Noroeste 10 Oeste 0 -- -- 91
2019-01-29 01:00:00 1.8 3 Sudeste 10 Nordeste 0 -- -- 84
2019-01-29 00:00:00 3.5 5 Sudeste 9 Este 0 -- -- 82
2019-01-28 23:00:00 3 2 Noroeste 10 Sudeste 0 -- -- 80
2019-01-28 22:00:00 5.1 9 Noroeste 18 Noroeste 0 -- -- 75
2019-01-28 21:00:00 4.3 10 Noroeste 13 Noroeste 0 -- -- 75
2019-01-28 20:00:00 5.9 8 Noroeste 15 Noroeste 0 -- -- 73
2019-01-28 19:00:00 7.7 12 Noroeste 23 Noroeste 0 -- -- 67
2019-01-28 18:00:00 9.7 15 Oeste 27 Oeste 0 -- -- 59
2019-01-28 17:00:00 11.9 21 Oeste 33 Noroeste 0 -- -- 51
2019-01-28 16:00:00 11.7 20 Noroeste 53 Oeste 0 -- -- 55
2019-01-28 15:00:00 11.8 37 Oeste 65 Oeste 0 -- -- 55
2019-01-28 14:00:00 11.4 51 Oeste 74 Oeste 0 -- -- 56
2019-01-28 13:00:00 11 44 Oeste 62 Noroeste 0 -- -- 54
2019-01-28 12:00:00 10.2 32 Oeste 58 Noroeste 0 -- -- 57
2019-01-28 11:00:00 9.4 35 Oeste 54 Oeste 0 -- -- 59
2019-01-28 10:00:00 6 16 Oeste 36 Oeste 0 -- -- 72
2019-01-28 09:00:00 1.3 0 Calma 10 Oeste 0 -- -- 88
2019-01-28 08:00:00 0.9 4 Sudeste 14 Oeste 0 -- -- 83
2019-01-28 07:00:00 2.4 5 Noroeste 10 Noroeste 0 -- -- 79
2019-01-28 06:00:00 1.8 3 Sudeste 22 Sudeste 0 -- -- 78
2019-01-28 05:00:00 1.1 7 Sudeste 12 Este 0 -- -- 81
2019-01-28 04:00:00 2.1 3 Sudoeste 9 Este 0 -- -- 77
2019-01-28 03:00:00 1.7 6 Sudeste 9 Noroeste 0 -- -- 78
2019-01-28 02:00:00 1.7 4 Este 10 Sudoeste 0 -- -- 80
2019-01-28 01:00:00 1.7 4 Noroeste 10 Sudeste 0 -- -- 75
2019-01-28 00:00:00 4.4 0 Calma 10 Este 0 -- -- 66
2019-01-27 23:00:00 7.3 8 Sur 28 Sudoeste 0 -- -- 54
2019-01-27 22:00:00 6.9 15 Oeste 28 Sudoeste 0 -- -- 59
2019-01-27 21:00:00 8.1 19 Oeste 32 Sudoeste 0 -- -- 56
2019-01-27 20:00:00 10 20 Oeste 46 Oeste 0 -- -- 52
2019-01-27 19:00:00 11.1 18 Oeste 32 Oeste 0 -- -- 50
2019-01-27 18:00:00 12.4 20 Sudoeste 31 Sudoeste 0 -- -- 48
2019-01-27 17:00:00 12.9 17 Noroeste 44 Oeste 0 -- -- 53
2019-01-27 16:00:00 15.2 9 Sudoeste 24 Noroeste 0 -- -- 44
2019-01-27 15:00:00 14.4 8 Oeste 45 Oeste 0 -- -- 52
2019-01-27 14:00:00 13.7 27 Oeste 44 Noroeste 0 -- -- 53
2019-01-27 13:00:00 11.1 17 Oeste 33 Noroeste 0 -- -- 63
2019-01-27 12:00:00 10.7 23 Noroeste 34 Noroeste 0 -- -- 68
2019-01-27 11:00:00 10.1 7 Este 12 Sudeste 0 -- -- 74
2019-01-27 10:00:00 5.4 3 Sudeste 9 Noroeste 0 -- -- 92
2019-01-27 09:00:00 5 8 Noroeste 14 Oeste 0 -- -- 93
2019-01-27 08:00:00 2.8 4 Noroeste 13 Noroeste 0 -- -- 98
2019-01-27 07:00:00 2.6 3 Oeste 8 Noroeste 0 -- -- 97
2019-01-27 06:00:00 2.2 5 Noroeste 9 Noroeste 0 -- -- 97
2019-01-27 05:00:00 2.3 4 Noroeste 9 Noroeste 0 -- -- 97
2019-01-27 04:00:00 2 0 Calma 6 Oeste 0 -- -- 95
2019-01-27 03:00:00 2.1 3 Noroeste 7 Oeste 0 -- -- 94
2019-01-27 02:00:00 3.3 3 Noroeste 6 Noroeste 0 -- -- 93
2019-01-27 01:00:00 4.2 0 Calma 12 Noroeste 0 -- -- 89
2019-01-27 00:00:00 5.4 6 Noroeste 11 Noroeste 0 -- -- 90
2019-01-26 23:00:00 5.8 9 Noroeste 13 Noroeste 0 -- -- 88
2019-01-26 22:00:00 5.3 7 Noroeste 12 Noroeste 0 -- -- 90
2019-01-26 21:00:00 6.2 3 Oeste 9 Oeste 0 -- -- 85
2019-01-26 20:00:00 7.2 5 Sudoeste 10 Sudoeste 0 -- -- 79
2019-01-26 19:00:00 10.3 7 Sudoeste 15 Sudoeste 0 -- -- 71
2019-01-26 18:00:00 11.8 8 Oeste 14 Oeste 0 -- -- 65
2019-01-26 17:00:00 14.7 10 Noroeste 18 Oeste 0 -- -- 56
2019-01-26 16:00:00 16.6 9 Oeste 13 Oeste 0 -- -- 48
2019-01-26 15:00:00 16.7 5 Sur 15 Sudeste 0 -- -- 49
2019-01-26 14:00:00 15.5 4 Este 24 Noroeste 0 -- -- 52
2019-01-26 13:00:00 13.9 11 Oeste 24 Sudoeste 0 -- -- 56
2019-01-26 12:00:00 12.8 3 Sudeste 9 Sudeste 0 -- -- 62
2019-01-26 11:00:00 9.8 5 Sudeste 11 Sudeste 0 -- -- 69
2019-01-26 10:00:00 6.1 0 Calma 9 Sudeste 0 -- -- 80
2019-01-26 09:00:00 2.1 3 Sudoeste 9 Sudoeste 0 -- -- 92
2019-01-26 08:00:00 1.2 6 Sudoeste 9 Sudoeste 0 -- -- 92
2019-01-26 07:00:00 1.8 2 Sur 12 Noroeste 0 -- -- 87
2019-01-26 06:00:00 1.2 7 Noroeste 10 Noroeste 0 -- -- 86
2019-01-26 05:00:00 2.1 3 Este 14 Este 0 -- -- 81
2019-01-26 04:00:00 2.7 5 Sudeste 9 Sudeste 0 -- -- 81
2019-01-26 03:00:00 1.4 3 Oeste 10 Noroeste 0 -- -- 84
2019-01-26 02:00:00 1.7 4 Noroeste 12 Noroeste 0 -- -- 79
2019-01-26 01:00:00 3 5 Noroeste 16 Oeste 0 -- -- 75
2019-01-26 00:00:00 3.5 8 Noroeste 15 Noroeste 0 -- -- 73
2019-01-25 23:00:00 3.4 9 Noroeste 15 Noroeste 0 -- -- 74
2019-01-25 22:00:00 4.5 3 Nordeste 18 Noroeste 0 -- -- 71
2019-01-25 21:00:00 4.9 11 Noroeste 15 Noroeste 0 -- -- 73
2019-01-25 20:00:00 5.3 10 Noroeste 17 Noroeste 0 -- -- 73
2019-01-25 19:00:00 6.7 9 Noroeste 13 Noroeste 0 -- -- 69
2019-01-25 18:00:00 10.6 5 Norte 9 Este 0 -- -- 53
2019-01-25 17:00:00 13.6 5 Este 18 Este 0 -- -- 43
2019-01-25 16:00:00 15.3 15 Sudeste 21 Sudeste 0 -- -- 37
2019-01-25 15:00:00 15.2 3 Sudeste 10 Sudeste 0 -- -- 35
2019-01-25 14:00:00 13.7 4 Sur 13 Sudeste 0 -- -- 35
2019-01-25 13:00:00 12.3 6 Sudeste 14 Sudeste 0 -- -- 35
2019-01-25 12:00:00 10.2 6 Sudeste 14 Sudeste 0 -- -- 36
2019-01-25 11:00:00 8.6 4 Sudeste 6 Sudeste 0 -- -- 38
2019-01-25 10:00:00 4.6 3 Noroeste 8 Noroeste 0 -- -- 57
2019-01-25 09:00:00 0.5 7 Noroeste 12 Noroeste 0 -- -- 63
2019-01-25 08:00:00 -2.1 2 Oeste 10 Noroeste 0 -- -- 68
2019-01-25 07:00:00 -2.7 6 Noroeste 9 Norte 0 -- -- 71
2019-01-25 06:00:00 -2.4 2 Noroeste 9 Noroeste 0 -- -- 68
2019-01-25 05:00:00 -1.9 9 Noroeste 12 Noroeste 0 -- -- 67
2019-01-25 04:00:00 -1.2 5 Noroeste 14 Oeste 0 -- -- 60
2019-01-25 03:00:00 0.2 8 Noroeste 17 Noroeste 0 -- -- 52
2019-01-25 02:00:00 0.2 12 Noroeste 16 Noroeste 0 -- -- 51
2019-01-25 01:00:00 1.5 9 Noroeste 17 Noroeste 0 -- -- 45
2019-01-25 00:00:00 0.6 11 Noroeste 14 Noroeste 0 -- -- 49
2019-01-24 23:00:00 0 3 Norte 11 Oeste 0 -- -- 49
2019-01-24 22:00:00 1.3 6 Noroeste 13 Noroeste 0 -- -- 45
2019-01-24 21:00:00 3.9 6 Oeste 18 Sudoeste 0 -- -- 38
2019-01-24 20:00:00 7 4 Noroeste 25 Noroeste 0 -- -- 25
2019-01-24 19:00:00 7.9 10 Noroeste 37 Noroeste 0 -- -- 25
2019-01-24 18:00:00 9.2 22 Noroeste 41 Oeste 0 -- -- 22
2019-01-24 17:00:00 10.6 26 Noroeste 46 Noroeste 0 -- -- 22
2019-01-24 16:00:00 11.7 23 Noroeste 48 Noroeste 0 -- -- 21
2019-01-24 15:00:00 11.7 31 Noroeste 50 Noroeste 0 -- -- 20
2019-01-24 14:00:00 11.8 25 Noroeste 39 Noroeste 0 -- -- 21
2019-01-24 13:00:00 11.2 18 Noroeste 58 Oeste 0 -- -- 27
2019-01-24 12:00:00 9.9 28 Noroeste 55 Oeste 0 -- -- 29
2019-01-24 11:00:00 8.8 17 Noroeste 53 Noroeste 0 -- -- 29
2019-01-24 10:00:00 7.6 29 Noroeste 75 Oeste 0 -- -- 29
2019-01-24 09:00:00 6 41 Noroeste 72 Oeste 0 -- -- 33
2019-01-24 08:00:00 5.5 48 Noroeste 74 Noroeste 0 -- -- 37
2019-01-24 07:00:00 4.7 44 Oeste 68 Oeste 0 -- -- 45
2019-01-24 06:00:00 3.9 42 Oeste 61 Oeste 0 -- -- 52
2019-01-24 05:00:00 0.9 16 Oeste 27 Sudoeste 0 -- -- 73
2019-01-24 04:00:00 1.5 7 Noroeste 16 Noroeste 0 -- -- 72
2019-01-24 03:00:00 1 6 Noroeste 15 Oeste 0 -- -- 78
2019-01-24 02:00:00 3.1 12 Oeste 28 Oeste 0 -- -- 71
2019-01-24 01:00:00 4.1 13 Oeste 37 Noroeste 0 -- -- 61
2019-01-24 00:00:00 5.1 26 Noroeste 42 Noroeste 0 -- -- 58
2019-01-23 23:00:00 5.2 21 Noroeste 38 Noroeste 0 -- -- 64
2019-01-23 22:00:00 5.8 18 Noroeste 33 Noroeste 0 -- -- 62
2019-01-23 21:00:00 6.2 17 Noroeste 36 Oeste 0 -- -- 70
2019-01-23 20:00:00 7.1 18 Oeste 40 Oeste 0 -- -- 64
2019-01-23 19:00:00 7.4 19 Noroeste 35 Noroeste 0 -- -- 68
2019-01-23 18:00:00 8 20 Noroeste 42 Oeste 0 -- -- 72
2019-01-23 17:00:00 8.8 31 Oeste 49 Oeste 0 -- -- 69
2019-01-23 16:00:00 9.5 30 Oeste 51 Oeste 0 -- -- 69
2019-01-23 15:00:00 9.1 5 Este 28 Oeste 0 -- -- 69
2019-01-23 14:00:00 9.3 16 Oeste 27 Oeste 0 -- -- 70
2019-01-23 13:00:00 8.8 6 Oeste 26 Oeste 0 -- -- 71
2019-01-23 12:00:00 7.7 16 Sudoeste 29 Noroeste 0 -- -- 74
2019-01-23 11:00:00 6.1 18 Noroeste 29 Noroeste 0 -- -- 80
2019-01-23 10:00:00 5 6 Este 28 Sudoeste 0 -- -- 82
2019-01-23 09:00:00 4.7 18 Oeste 36 Sudoeste 0 -- -- 80
2019-01-23 08:00:00 3.1 5 Este 17 Oeste 0 -- -- 84
2019-01-23 07:00:00 3.7 6 Noroeste 23 Sudoeste 0 -- -- 81
2019-01-23 06:00:00 3.5 10 Oeste 24 Oeste 0 -- -- 81
2019-01-23 05:00:00 2.2 6 Noroeste 12 Este 0 -- -- 89
2019-01-23 04:00:00 0.8 6 Sudoeste 12 Sudoeste 0 -- -- 92
2019-01-23 03:00:00 0.9 6 Sudeste 10 Sudeste 0 -- -- 90
2019-01-23 02:00:00 1.4 3 Noroeste 8 Sudoeste 0 -- -- 89
2019-01-23 01:00:00 1.8 2 Sudoeste 6 Sur 0 -- -- 85
2019-01-23 00:00:00 2.6 3 Noroeste 10 Sudoeste 0 -- -- 85
2019-01-22 23:00:00 2.7 4 Sudeste 8 Este 0 -- -- 82
2019-01-22 22:00:00 3.5 2 Noroeste 8 Nordeste 0 -- -- 82
2019-01-22 21:00:00 4.9 5 Sudoeste 17 Oeste 0 -- -- 74
2019-01-22 20:00:00 6.1 17 Oeste 28 Oeste 0 -- -- 69
2019-01-22 19:00:00 6.4 12 Oeste 19 Oeste 0 -- -- 65
2019-01-22 18:00:00 6.6 6 Oeste 24 Oeste 0 -- -- 58
2019-01-22 17:00:00 8 4 Oeste 16 Noroeste 0 -- -- 52
2019-01-22 16:00:00 8.3 10 Noroeste 21 Oeste 0 -- -- 49
2019-01-22 15:00:00 9.2 12 Oeste 18 Oeste 0 -- -- 47
2019-01-22 14:00:00 10.2 5 Sudoeste 8 Oeste 0 -- -- 48
2019-01-22 13:00:00 8.1 4 Oeste 18 Sudoeste 0 -- -- 60
2019-01-22 12:00:00 5.5 6 Sudeste 10 Este 0 -- -- 76
2019-01-22 11:00:00 3.3 8 Sudeste 12 Sudeste 0 -- -- 93
2019-01-22 10:00:00 0.9 3 Noroeste 6 Este 0 -- -- 100
2019-01-22 09:00:00 -1.9 0 Calma 7 Noroeste 0 -- -- 100
2019-01-22 08:00:00 -2.6 2 Noroeste 6 Este 0 -- -- 100
2019-01-22 07:00:00 -1.7 0 Calma 9 Oeste 0 -- -- 99
2019-01-22 06:00:00 -1.8 0 Calma 5 Norte 0 -- -- 98
2019-01-22 05:00:00 -0.5 4 Noroeste 8 Noroeste 0 -- -- 98
2019-01-22 04:00:00 0 5 Noroeste 13 Noroeste 0 -- -- 98
2019-01-22 03:00:00 -0.3 2 Noroeste 4 Noroeste 0 -- -- 97
2019-01-22 02:00:00 0.7 2 Norte 9 Noroeste 0 -- -- 95
2019-01-22 01:00:00 1.3 8 Noroeste 13 Noroeste 0 -- -- 96
2019-01-22 00:00:00 1.7 9 Noroeste 12 Noroeste 0 -- -- 95
2019-01-21 23:00:00 2.4 6 Noroeste 13 Noroeste 0 -- -- 93
2019-01-21 22:00:00 3.2 9 Noroeste 13 Oeste 0 -- -- 93
2019-01-21 21:00:00 3.9 9 Noroeste 15 Noroeste 0 -- -- 92
2019-01-21 20:00:00 4.7 8 Noroeste 12 Noroeste 0 -- -- 92
2019-01-21 19:00:00 5.7 4 Noroeste 6 Este 0 -- -- 88
2019-01-21 18:00:00 9.3 4 Este 19 Sudeste 0 -- -- 71
2019-01-21 17:00:00 11.3 13 Sudeste 20 Sudeste 0 -- -- 63
2019-01-21 16:00:00 11.7 9 Sudeste 15 Sudeste 0 -- -- 61
2019-01-21 15:00:00 11.9 8 Sudeste 14 Sur 0 -- -- 64
2019-01-21 14:00:00 11.6 8 Este 13 Este 0 -- -- 64
2019-01-21 13:00:00 10.4 6 Sudeste 13 Sudeste 0 -- -- 72
2019-01-21 12:00:00 8.7 6 Sudeste 10 Sudeste 0 -- -- 83
2019-01-21 11:00:00 5.3 5 Sudeste 10 Este 0 -- -- 100
2019-01-21 10:00:00 2.4 6 Sudeste 8 Sudeste 0 -- -- 100
2019-01-21 09:00:00 -0.3 2 Noroeste 8 Noroeste 0 -- -- 100
2019-01-21 08:00:00 -0.3 3 Noroeste 10 Noroeste 0 -- -- 100
2019-01-21 07:00:00 -0.7 0 Calma 5 Noroeste 0 -- -- 100
2019-01-21 06:00:00 -0.4 0 Calma 5 Sur 0 -- -- 100
2019-01-21 05:00:00 0.2 3 Sudoeste 6 Sudoeste 0 -- -- 100
2019-01-21 04:00:00 0.4 0 Calma 5 Noroeste 0 -- -- 100
2019-01-21 03:00:00 0.5 4 Oeste 8 Oeste 0 -- -- 99
2019-01-21 02:00:00 1.6 0 Calma 13 Noroeste 0 -- -- 97
2019-01-21 01:00:00 2.3 6 Noroeste 11 Noroeste 0 -- -- 99
2019-01-21 00:00:00 1.8 5 Noroeste 10 Noroeste 0 -- -- 99
2019-01-20 23:00:00 2.4 6 Noroeste 9 Noroeste 0 -- -- 98
2019-01-20 22:00:00 3.2 4 Noroeste 11 Noroeste 0 -- -- 98
2019-01-20 21:00:00 3.3 4 Noroeste 10 Noroeste 0 -- -- 97
2019-01-20 20:00:00 4.5 3 Noroeste 9 Noroeste 0 -- -- 97
2019-01-20 19:00:00 5.4 5 Noroeste 8 Noroeste 0 -- -- 96
2019-01-20 18:00:00 7.8 5 Nordeste 8 Sur 0 -- -- 89
2019-01-20 17:00:00 8.5 5 Sur 7 Sur 0 -- -- 88
2019-01-20 16:00:00 9 3 Sudeste 5 Sudeste 0 -- -- 85
2019-01-20 15:00:00 8.9 3 Este 8 Este 0 -- -- 83
2019-01-20 14:00:00 8.6 2 Noroeste 8 Norte 0 -- -- 86
2019-01-20 13:00:00 8.3 4 Nordeste 13 Nordeste 0 -- -- 87
2019-01-20 12:00:00 8.2 6 Nordeste 14 Nordeste 0.4 -- -- 93
2019-01-20 11:00:00 7.9 4 Norte 12 Norte 1 -- -- 97
2019-01-20 10:00:00 7 5 Noroeste 9 Noroeste 0.8 -- -- 98
2019-01-20 09:00:00 6.9 4 Norte 12 Noroeste 0.8 -- -- 98
2019-01-20 08:00:00 5.9 8 Noroeste 10 Noroeste 0.8 -- -- 100
2019-01-20 07:00:00 5.4 2 Este 13 Sudeste 1.6 -- -- 99
2019-01-20 06:00:00 5.4 3 Norte 6 Noroeste 0.8 -- -- 99
2019-01-20 05:00:00 5.2 3 Oeste 10 Sur 0.4 -- -- 98
2019-01-20 04:00:00 5.2 2 Sudoeste 8 Sudeste 0.4 -- -- 97
2019-01-20 03:00:00 5.1 5 Noroeste 8 Noroeste 0.8 -- -- 96
2019-01-20 02:00:00 5.2 0 Calma 8 Noroeste 0.2 -- -- 90
2019-01-20 01:00:00 4.8 0 Calma 8 Oeste 0 -- -- 85
2019-01-20 00:00:00 4.8 6 Noroeste 11 Noroeste 0 -- -- 84
2019-01-19 23:00:00 4.2 5 Noroeste 12 Noroeste 0 -- -- 86
2019-01-19 22:00:00 3.6 8 Noroeste 11 Noroeste 0 -- -- 86
2019-01-19 21:00:00 4.4 7 Noroeste 11 Noroeste 0 -- -- 85
2019-01-19 20:00:00 4.5 10 Noroeste 13 Noroeste 0 -- -- 85
2019-01-19 19:00:00 5.2 8 Noroeste 9 Noroeste 0 -- -- 84
2019-01-19 18:00:00 7.5 0 Calma 12 Sudeste 0 -- -- 74
2019-01-19 17:00:00 10.3 7 Sur 14 Sudeste 0 -- -- 61
2019-01-19 16:00:00 11.3 7 Sur 19 Sudeste 0 -- -- 57
2019-01-19 15:00:00 11.9 12 Sudeste 19 Sudeste 0 -- -- 58
2019-01-19 14:00:00 11.7 12 Sudeste 18 Sudeste 0 -- -- 62
2019-01-19 13:00:00 10.1 7 Sudeste 11 Sudeste 0 -- -- 70
2019-01-19 12:00:00 8.8 4 Sudeste 9 Sudeste 0 -- -- 75
2019-01-19 11:00:00 5.8 3 Sudeste 6 Sudeste 0 -- -- 85
2019-01-19 10:00:00 2.9 0 Calma 4 Este 0 -- -- 97
2019-01-19 09:00:00 0.9 0 Calma 4 Este 0 -- -- 98
2019-01-19 08:00:00 0.5 2 Sudeste 6 Oeste 0 -- -- 97
2019-01-19 07:00:00 -0.1 0 Calma 9 Noroeste 0 -- -- 96
2019-01-19 06:00:00 0.3 2 Noroeste 7 Noroeste 0 -- -- 94
2019-01-19 05:00:00 0.9 2 Noroeste 13 Oeste 0 -- -- 92
2019-01-19 04:00:00 1.1 6 Noroeste 13 Oeste 0 -- -- 94
2019-01-19 03:00:00 1.2 4 Noroeste 13 Noroeste 0 -- -- 89
2019-01-19 02:00:00 2.6 8 Noroeste 10 Noroeste 0 -- -- 89
2019-01-19 01:00:00 2.3 3 Oeste 6 Noroeste 0 -- -- 90
2019-01-19 00:00:00 3.5 5 Noroeste 11 Oeste 0 -- -- 85